sensor_id;sensor_type;location;lat;lon;timestamp;P1;durP1;ratioP1;P2;durP2;ratioP2
37791;SDS011;29527;55.766;37.570;2023-06-05T00:02:14;6.25;;;3.03;;
37791;SDS011;29527;55.766;37.570;2023-06-05T00:04:41;5.65;;;2.95;;
37791;SDS011;29527;55.766;37.570;2023-06-05T00:07:08;7.25;;;2.90;;
37791;SDS011;29527;55.766;37.570;2023-06-05T00:09:34;7.05;;;2.97;;
37791;SDS011;29527;55.766;37.570;2023-06-05T00:11:59;4.47;;;2.63;;
37791;SDS011;29527;55.766;37.570;2023-06-05T00:14:25;6.65;;;3.00;;
37791;SDS011;29527;55.766;37.570;2023-06-05T00:16:51;7.32;;;3.08;;
37791;SDS011;29527;55.766;37.570;2023-06-05T00:19:17;10.70;;;3.10;;
37791;SDS011;29527;55.766;37.570;2023-06-05T00:21:42;7.15;;;3.22;;
37791;SDS011;29527;55.766;37.570;2023-06-05T00:24:08;5.85;;;2.92;;
37791;SDS011;29527;55.766;37.570;2023-06-05T00:26:33;4.70;;;3.20;;
37791;SDS011;29527;55.766;37.570;2023-06-05T00:28:59;6.65;;;3.08;;
37791;SDS011;29527;55.766;37.570;2023-06-05T00:31:25;5.78;;;2.97;;
37791;SDS011;29527;55.766;37.570;2023-06-05T00:33:50;5.32;;;3.30;;
37791;SDS011;29527;55.766;37.570;2023-06-05T00:36:17;6.82;;;2.92;;
37791;SDS011;29527;55.766;37.570;2023-06-05T00:38:44;10.73;;;3.03;;
37791;SDS011;29527;55.766;37.570;2023-06-05T00:41:10;7.38;;;2.80;;
37791;SDS011;29527;55.766;37.570;2023-06-05T00:43:36;4.60;;;3.00;;
37791;SDS011;29527;55.766;37.570;2023-06-05T00:46:03;8.18;;;3.10;;
37791;SDS011;29527;55.766;37.570;2023-06-05T00:48:29;7.10;;;2.70;;
37791;SDS011;29527;55.766;37.570;2023-06-05T00:50:58;5.60;;;2.90;;
37791;SDS011;29527;55.766;37.570;2023-06-05T00:53:24;3.30;;;2.67;;
37791;SDS011;29527;55.766;37.570;2023-06-05T00:55:51;5.43;;;2.85;;
37791;SDS011;29527;55.766;37.570;2023-06-05T00:58:17;7.53;;;2.80;;
37791;SDS011;29527;55.766;37.570;2023-06-05T01:00:43;4.38;;;2.58;;
37791;SDS011;29527;55.766;37.570;2023-06-05T01:03:09;5.53;;;2.67;;
37791;SDS011;29527;55.766;37.570;2023-06-05T01:05:34;5.93;;;2.60;;
37791;SDS011;29527;55.766;37.570;2023-06-05T01:08:02;3.63;;;2.78;;
37791;SDS011;29527;55.766;37.570;2023-06-05T01:10:28;5.28;;;2.92;;
37791;SDS011;29527;55.766;37.570;2023-06-05T01:12:58;7.47;;;2.55;;
37791;SDS011;29527;55.766;37.570;2023-06-05T01:15:31;7.35;;;2.83;;
37791;SDS011;29527;55.766;37.570;2023-06-05T01:17:59;5.10;;;2.85;;
37791;SDS011;29527;55.766;37.570;2023-06-05T01:20:32;6.80;;;2.50;;
37791;SDS011;29527;55.766;37.570;2023-06-05T01:22:58;6.25;;;2.85;;
37791;SDS011;29527;55.766;37.570;2023-06-05T01:25:24;8.00;;;2.88;;
37791;SDS011;29527;55.766;37.570;2023-06-05T01:27:55;6.35;;;2.75;;
37791;SDS011;29527;55.766;37.570;2023-06-05T01:30:35;8.73;;;2.90;;
37791;SDS011;29527;55.766;37.570;2023-06-05T01:35:42;4.05;;;2.72;;
37791;SDS011;29527;55.766;37.570;2023-06-05T01:38:10;4.70;;;2.45;;
37791;SDS011;29527;55.766;37.570;2023-06-05T01:40:37;6.13;;;2.53;;
37791;SDS011;29527;55.766;37.570;2023-06-05T01:43:04;4.82;;;2.28;;
37791;SDS011;29527;55.766;37.570;2023-06-05T01:45:32;5.63;;;2.40;;
37791;SDS011;29527;55.766;37.570;2023-06-05T01:48:02;3.75;;;2.45;;
37791;SDS011;29527;55.766;37.570;2023-06-05T01:50:33;4.93;;;2.17;;
37791;SDS011;29527;55.766;37.570;2023-06-05T01:52:59;4.63;;;2.35;;
37791;SDS011;29527;55.766;37.570;2023-06-05T01:55:26;3.47;;;2.20;;
37791;SDS011;29527;55.766;37.570;2023-06-05T01:57:52;4.00;;;2.25;;
37791;SDS011;29527;55.766;37.570;2023-06-05T02:00:17;7.15;;;2.60;;
37791;SDS011;29527;55.766;37.570;2023-06-05T02:02:43;6.10;;;2.28;;
37791;SDS011;29527;55.766;37.570;2023-06-05T02:05:14;4.15;;;2.30;;
37791;SDS011;29527;55.766;37.570;2023-06-05T02:07:43;4.57;;;2.40;;
37791;SDS011;29527;55.766;37.570;2023-06-05T02:10:20;6.55;;;2.30;;
37791;SDS011;29527;55.766;37.570;2023-06-05T02:12:49;3.88;;;2.05;;
37791;SDS011;29527;55.766;37.570;2023-06-05T02:15:17;5.07;;;2.05;;
37791;SDS011;29527;55.766;37.570;2023-06-05T02:17:43;3.42;;;2.33;;
37791;SDS011;29527;55.766;37.570;2023-06-05T02:20:15;3.15;;;2.03;;
37791;SDS011;29527;55.766;37.570;2023-06-05T02:22:42;4.85;;;2.13;;
37791;SDS011;29527;55.766;37.570;2023-06-05T02:25:09;4.88;;;2.22;;
37791;SDS011;29527;55.766;37.570;2023-06-05T02:27:36;5.22;;;1.90;;
37791;SDS011;29527;55.766;37.570;2023-06-05T02:30:02;5.97;;;2.10;;
37791;SDS011;29527;55.766;37.570;2023-06-05T02:32:31;6.22;;;2.22;;
37791;SDS011;29527;55.766;37.570;2023-06-05T02:34:57;8.02;;;2.25;;
37791;SDS011;29527;55.766;37.570;2023-06-05T02:37:28;5.32;;;2.13;;
37791;SDS011;29527;55.766;37.570;2023-06-05T02:39:54;3.72;;;2.10;;
37791;SDS011;29527;55.766;37.570;2023-06-05T02:42:19;7.38;;;2.10;;
37791;SDS011;29527;55.766;37.570;2023-06-05T02:44:45;4.72;;;2.03;;
37791;SDS011;29527;55.766;37.570;2023-06-05T02:47:12;4.28;;;2.15;;
37791;SDS011;29527;55.766;37.570;2023-06-05T02:49:38;2.70;;;2.15;;
37791;SDS011;29527;55.766;37.570;2023-06-05T02:52:03;3.83;;;2.40;;
37791;SDS011;29527;55.766;37.570;2023-06-05T02:54:30;3.90;;;1.98;;
37791;SDS011;29527;55.766;37.570;2023-06-05T02:56:55;5.22;;;2.13;;
37791;SDS011;29527;55.766;37.570;2023-06-05T02:59:22;4.05;;;2.30;;
37791;SDS011;29527;55.766;37.570;2023-06-05T03:01:52;3.42;;;2.25;;
37791;SDS011;29527;55.766;37.570;2023-06-05T03:04:19;5.15;;;2.03;;
37791;SDS011;29527;55.766;37.570;2023-06-05T03:06:49;3.47;;;2.03;;
37791;SDS011;29527;55.766;37.570;2023-06-05T03:09:16;8.63;;;2.30;;
37791;SDS011;29527;55.766;37.570;2023-06-05T03:11:43;5.45;;;2.13;;
37791;SDS011;29527;55.766;37.570;2023-06-05T03:14:08;3.55;;;2.13;;
37791;SDS011;29527;55.766;37.570;2023-06-05T03:16:34;6.28;;;2.30;;
37791;SDS011;29527;55.766;37.570;2023-06-05T03:19:06;7.57;;;2.10;;
37791;SDS011;29527;55.766;37.570;2023-06-05T03:21:38;5.13;;;2.00;;
37791;SDS011;29527;55.766;37.570;2023-06-05T03:24:09;6.10;;;2.10;;
37791;SDS011;29527;55.766;37.570;2023-06-05T03:26:38;7.68;;;2.17;;
37791;SDS011;29527;55.766;37.570;2023-06-05T03:29:04;3.45;;;2.00;;
37791;SDS011;29527;55.766;37.570;2023-06-05T03:31:30;3.35;;;2.08;;
37791;SDS011;29527;55.766;37.570;2023-06-05T03:33:56;8.13;;;2.00;;
37791;SDS011;29527;55.766;37.570;2023-06-05T03:36:23;4.22;;;2.10;;
37791;SDS011;29527;55.766;37.570;2023-06-05T03:38:49;4.32;;;2.42;;
37791;SDS011;29527;55.766;37.570;2023-06-05T03:41:14;3.58;;;2.20;;
37791;SDS011;29527;55.766;37.570;2023-06-05T03:43:40;4.72;;;2.17;;
37791;SDS011;29527;55.766;37.570;2023-06-05T03:46:06;4.38;;;2.13;;
37791;SDS011;29527;55.766;37.570;2023-06-05T03:48:32;2.88;;;2.00;;
37791;SDS011;29527;55.766;37.570;2023-06-05T03:50:58;5.13;;;2.30;;
37791;SDS011;29527;55.766;37.570;2023-06-05T03:53:25;4.40;;;2.20;;
37791;SDS011;29527;55.766;37.570;2023-06-05T03:55:54;5.20;;;2.25;;
37791;SDS011;29527;55.766;37.570;2023-06-05T03:58:21;4.20;;;2.13;;
37791;SDS011;29527;55.766;37.570;2023-06-05T04:00:48;4.22;;;2.30;;
37791;SDS011;29527;55.766;37.570;2023-06-05T04:03:14;5.45;;;2.50;;
37791;SDS011;29527;55.766;37.570;2023-06-05T04:05:40;2.70;;;2.20;;
37791;SDS011;29527;55.766;37.570;2023-06-05T04:08:07;4.63;;;2.30;;
37791;SDS011;29527;55.766;37.570;2023-06-05T04:10:34;4.15;;;2.10;;
37791;SDS011;29527;55.766;37.570;2023-06-05T04:13:00;4.57;;;2.60;;
37791;SDS011;29527;55.766;37.570;2023-06-05T04:15:26;4.72;;;2.72;;
37791;SDS011;29527;55.766;37.570;2023-06-05T04:17:53;5.05;;;2.83;;
37791;SDS011;29527;55.766;37.570;2023-06-05T04:20:20;5.82;;;2.83;;
37791;SDS011;29527;55.766;37.570;2023-06-05T04:22:46;5.22;;;3.00;;
37791;SDS011;29527;55.766;37.570;2023-06-05T04:25:11;3.50;;;2.50;;
37791;SDS011;29527;55.766;37.570;2023-06-05T04:27:38;4.72;;;2.67;;
37791;SDS011;29527;55.766;37.570;2023-06-05T04:30:04;5.43;;;2.50;;
37791;SDS011;29527;55.766;37.570;2023-06-05T04:32:31;2.95;;;2.10;;
37791;SDS011;29527;55.766;37.570;2023-06-05T04:34:59;6.78;;;2.40;;
37791;SDS011;29527;55.766;37.570;2023-06-05T04:37:25;5.45;;;2.65;;
37791;SDS011;29527;55.766;37.570;2023-06-05T04:39:51;8.10;;;3.30;;
37791;SDS011;29527;55.766;37.570;2023-06-05T04:42:17;4.20;;;2.95;;
37791;SDS011;29527;55.766;37.570;2023-06-05T04:44:43;4.13;;;2.42;;
37791;SDS011;29527;55.766;37.570;2023-06-05T04:47:08;3.05;;;2.50;;
37791;SDS011;29527;55.766;37.570;2023-06-05T04:49:35;5.78;;;2.60;;
37791;SDS011;29527;55.766;37.570;2023-06-05T04:52:00;3.88;;;2.42;;
37791;SDS011;29527;55.766;37.570;2023-06-05T04:54:26;3.05;;;2.40;;
37791;SDS011;29527;55.766;37.570;2023-06-05T04:56:51;4.60;;;2.67;;
37791;SDS011;29527;55.766;37.570;2023-06-05T04:59:18;3.75;;;2.80;;
37791;SDS011;29527;55.766;37.570;2023-06-05T05:01:43;5.97;;;2.67;;
37791;SDS011;29527;55.766;37.570;2023-06-05T05:04:09;5.30;;;2.45;;
37791;SDS011;29527;55.766;37.570;2023-06-05T05:06:37;4.68;;;2.70;;
37791;SDS011;29527;55.766;37.570;2023-06-05T05:09:04;4.13;;;2.38;;
37791;SDS011;29527;55.766;37.570;2023-06-05T05:11:29;4.13;;;3.15;;
37791;SDS011;29527;55.766;37.570;2023-06-05T05:13:55;7.03;;;3.10;;
37791;SDS011;29527;55.766;37.570;2023-06-05T05:16:20;6.55;;;2.70;;
37791;SDS011;29527;55.766;37.570;2023-06-05T05:18:47;5.63;;;2.80;;
37791;SDS011;29527;55.766;37.570;2023-06-05T05:21:13;5.90;;;3.10;;
37791;SDS011;29527;55.766;37.570;2023-06-05T05:23:38;4.05;;;2.92;;
37791;SDS011;29527;55.766;37.570;2023-06-05T05:26:04;4.45;;;2.80;;
37791;SDS011;29527;55.766;37.570;2023-06-05T05:28:30;3.83;;;2.70;;
37791;SDS011;29527;55.766;37.570;2023-06-05T05:30:55;6.80;;;2.85;;
37791;SDS011;29527;55.766;37.570;2023-06-05T05:33:24;4.38;;;2.25;;
37791;SDS011;29527;55.766;37.570;2023-06-05T05:35:49;5.68;;;2.80;;
37791;SDS011;29527;55.766;37.570;2023-06-05T05:38:15;6.05;;;2.63;;
37791;SDS011;29527;55.766;37.570;2023-06-05T05:40:41;8.02;;;2.78;;
37791;SDS011;29527;55.766;37.570;2023-06-05T05:43:07;7.45;;;2.58;;
37791;SDS011;29527;55.766;37.570;2023-06-05T05:45:33;8.18;;;2.78;;
37791;SDS011;29527;55.766;37.570;2023-06-05T05:47:58;7.25;;;2.60;;
37791;SDS011;29527;55.766;37.570;2023-06-05T05:50:24;4.82;;;2.28;;
37791;SDS011;29527;55.766;37.570;2023-06-05T05:52:49;3.10;;;2.47;;
37791;SDS011;29527;55.766;37.570;2023-06-05T05:55:17;5.95;;;2.58;;
37791;SDS011;29527;55.766;37.570;2023-06-05T05:57:42;9.02;;;3.08;;
37791;SDS011;29527;55.766;37.570;2023-06-05T06:00:08;4.78;;;2.20;;
37791;SDS011;29527;55.766;37.570;2023-06-05T06:02:38;3.78;;;2.67;;
37791;SDS011;29527;55.766;37.570;2023-06-05T06:05:04;6.05;;;2.80;;
37791;SDS011;29527;55.766;37.570;2023-06-05T06:07:30;3.83;;;2.60;;
37791;SDS011;29527;55.766;37.570;2023-06-05T06:09:57;5.40;;;2.40;;
37791;SDS011;29527;55.766;37.570;2023-06-05T06:12:23;4.63;;;2.50;;
37791;SDS011;29527;55.766;37.570;2023-06-05T06:14:50;7.30;;;2.45;;
37791;SDS011;29527;55.766;37.570;2023-06-05T06:17:15;6.25;;;2.72;;
37791;SDS011;29527;55.766;37.570;2023-06-05T06:19:41;6.20;;;2.47;;
37791;SDS011;29527;55.766;37.570;2023-06-05T06:22:07;5.53;;;2.30;;
37791;SDS011;29527;55.766;37.570;2023-06-05T06:24:40;8.35;;;2.67;;
37791;SDS011;29527;55.766;37.570;2023-06-05T06:27:07;7.55;;;2.95;;
37791;SDS011;29527;55.766;37.570;2023-06-05T06:29:37;6.88;;;2.60;;
37791;SDS011;29527;55.766;37.570;2023-06-05T06:32:11;6.78;;;2.65;;
37791;SDS011;29527;55.766;37.570;2023-06-05T06:34:36;7.57;;;2.20;;
37791;SDS011;29527;55.766;37.570;2023-06-05T06:37:03;5.60;;;2.45;;
37791;SDS011;29527;55.766;37.570;2023-06-05T06:39:28;5.75;;;2.13;;
37791;SDS011;29527;55.766;37.570;2023-06-05T06:41:54;3.90;;;1.98;;
37791;SDS011;29527;55.766;37.570;2023-06-05T06:44:19;3.83;;;1.98;;
37791;SDS011;29527;55.766;37.570;2023-06-05T06:46:45;5.65;;;2.00;;
37791;SDS011;29527;55.766;37.570;2023-06-05T06:49:10;4.97;;;2.08;;
37791;SDS011;29527;55.766;37.570;2023-06-05T06:51:36;4.65;;;2.00;;
37791;SDS011;29527;55.766;37.570;2023-06-05T06:54:02;4.22;;;2.30;;
37791;SDS011;29527;55.766;37.570;2023-06-05T06:56:27;4.25;;;1.95;;
37791;SDS011;29527;55.766;37.570;2023-06-05T06:58:53;6.43;;;2.13;;
37791;SDS011;29527;55.766;37.570;2023-06-05T07:01:19;3.85;;;2.10;;
37791;SDS011;29527;55.766;37.570;2023-06-05T07:03:45;4.30;;;1.70;;
37791;SDS011;29527;55.766;37.570;2023-06-05T07:06:11;3.85;;;1.75;;
37791;SDS011;29527;55.766;37.570;2023-06-05T07:08:38;5.28;;;1.80;;
37791;SDS011;29527;55.766;37.570;2023-06-05T07:11:03;3.10;;;1.55;;
37791;SDS011;29527;55.766;37.570;2023-06-05T07:13:29;5.07;;;1.83;;
37791;SDS011;29527;55.766;37.570;2023-06-05T07:15:55;3.60;;;1.50;;
37791;SDS011;29527;55.766;37.570;2023-06-05T07:18:20;5.43;;;1.30;;
37791;SDS011;29527;55.766;37.570;2023-06-05T07:20:46;4.38;;;1.70;;
37791;SDS011;29527;55.766;37.570;2023-06-05T07:23:13;3.90;;;1.80;;
37791;SDS011;29527;55.766;37.570;2023-06-05T07:25:40;3.55;;;1.77;;
37791;SDS011;29527;55.766;37.570;2023-06-05T07:28:09;3.92;;;2.03;;
37791;SDS011;29527;55.766;37.570;2023-06-05T07:30:38;2.28;;;1.70;;
37791;SDS011;29527;55.766;37.570;2023-06-05T07:33:08;1.90;;;1.80;;
37791;SDS011;29527;55.766;37.570;2023-06-05T07:35:35;2.72;;;1.83;;
37791;SDS011;29527;55.766;37.570;2023-06-05T07:38:00;2.47;;;1.55;;
37791;SDS011;29527;55.766;37.570;2023-06-05T07:40:26;6.43;;;2.50;;
37791;SDS011;29527;55.766;37.570;2023-06-05T07:42:51;2.67;;;2.33;;
37791;SDS011;29527;55.766;37.570;2023-06-05T07:45:17;5.05;;;2.30;;
37791;SDS011;29527;55.766;37.570;2023-06-05T07:47:42;4.53;;;2.47;;
37791;SDS011;29527;55.766;37.570;2023-06-05T07:50:08;5.20;;;1.85;;
37791;SDS011;29527;55.766;37.570;2023-06-05T07:52:35;4.72;;;2.03;;
37791;SDS011;29527;55.766;37.570;2023-06-05T07:55:01;4.07;;;2.10;;
37791;SDS011;29527;55.766;37.570;2023-06-05T07:57:29;2.63;;;1.90;;
37791;SDS011;29527;55.766;37.570;2023-06-05T07:59:54;3.35;;;1.90;;
37791;SDS011;29527;55.766;37.570;2023-06-05T08:02:20;5.07;;;1.85;;
37791;SDS011;29527;55.766;37.570;2023-06-05T08:04:46;2.67;;;1.70;;
37791;SDS011;29527;55.766;37.570;2023-06-05T08:07:12;3.58;;;1.90;;
37791;SDS011;29527;55.766;37.570;2023-06-05T08:09:38;5.03;;;2.22;;
37791;SDS011;29527;55.766;37.570;2023-06-05T08:12:04;6.00;;;1.85;;
37791;SDS011;29527;55.766;37.570;2023-06-05T08:14:31;2.05;;;1.60;;
37791;SDS011;29527;55.766;37.570;2023-06-05T08:16:58;4.90;;;1.40;;
37791;SDS011;29527;55.766;37.570;2023-06-05T08:19:24;6.90;;;1.50;;
37791;SDS011;29527;55.766;37.570;2023-06-05T08:21:53;4.03;;;1.35;;
37791;SDS011;29527;55.766;37.570;2023-06-05T08:26:52;3.53;;;1.30;;
37791;SDS011;29527;55.766;37.570;2023-06-05T08:29:17;4.15;;;1.60;;
37791;SDS011;29527;55.766;37.570;2023-06-05T08:31:43;6.00;;;1.67;;
37791;SDS011;29527;55.766;37.570;2023-06-05T08:34:08;1.60;;;1.20;;
37791;SDS011;29527;55.766;37.570;2023-06-05T08:36:34;4.68;;;1.63;;
37791;SDS011;29527;55.766;37.570;2023-06-05T08:39:00;6.53;;;1.65;;
37791;SDS011;29527;55.766;37.570;2023-06-05T08:41:26;2.97;;;1.55;;
37791;SDS011;29527;55.766;37.570;2023-06-05T08:43:52;3.30;;;1.52;;
37791;SDS011;29527;55.766;37.570;2023-06-05T08:46:18;5.18;;;1.50;;
37791;SDS011;29527;55.766;37.570;2023-06-05T08:48:45;3.53;;;1.40;;
37791;SDS011;29527;55.766;37.570;2023-06-05T08:51:14;2.75;;;1.50;;
37791;SDS011;29527;55.766;37.570;2023-06-05T08:53:42;4.97;;;1.88;;
37791;SDS011;29527;55.766;37.570;2023-06-05T08:56:12;4.18;;;1.50;;
37791;SDS011;29527;55.766;37.570;2023-06-05T08:58:39;3.85;;;1.50;;
37791;SDS011;29527;55.766;37.570;2023-06-05T09:01:07;3.20;;;1.63;;
37791;SDS011;29527;55.766;37.570;2023-06-05T09:03:34;4.10;;;1.30;;
37791;SDS011;29527;55.766;37.570;2023-06-05T09:06:00;5.25;;;1.55;;
37791;SDS011;29527;55.766;37.570;2023-06-05T09:08:28;8.35;;;2.15;;
37791;SDS011;29527;55.766;37.570;2023-06-05T09:13:59;4.47;;;1.40;;
37791;SDS011;29527;55.766;37.570;2023-06-05T09:16:36;5.20;;;1.60;;
37791;SDS011;29527;55.766;37.570;2023-06-05T09:19:08;5.43;;;1.50;;
37791;SDS011;29527;55.766;37.570;2023-06-05T09:21:35;2.42;;;1.65;;
37791;SDS011;29527;55.766;37.570;2023-06-05T09:29:11;2.72;;;1.58;;
37791;SDS011;29527;55.766;37.570;2023-06-05T09:31:43;4.07;;;1.50;;
37791;SDS011;29527;55.766;37.570;2023-06-05T09:34:09;2.33;;;1.48;;
37791;SDS011;29527;55.766;37.570;2023-06-05T09:36:36;9.07;;;2.67;;
37791;SDS011;29527;55.766;37.570;2023-06-05T09:41:42;3.95;;;2.03;;
37791;SDS011;29527;55.766;37.570;2023-06-05T09:44:09;6.53;;;1.67;;
37791;SDS011;29527;55.766;37.570;2023-06-05T09:46:49;7.75;;;1.60;;
37791;SDS011;29527;55.766;37.570;2023-06-05T09:49:17;5.80;;;1.50;;
37791;SDS011;29527;55.766;37.570;2023-06-05T09:51:43;4.20;;;1.67;;
37791;SDS011;29527;55.766;37.570;2023-06-05T09:54:09;7.53;;;2.00;;
37791;SDS011;29527;55.766;37.570;2023-06-05T09:56:37;6.25;;;2.00;;
37791;SDS011;29527;55.766;37.570;2023-06-05T09:59:05;2.28;;;1.58;;
37791;SDS011;29527;55.766;37.570;2023-06-05T10:01:32;4.93;;;1.60;;
37791;SDS011;29527;55.766;37.570;2023-06-05T10:04:02;6.07;;;1.80;;
37791;SDS011;29527;55.766;37.570;2023-06-05T10:06:35;8.90;;;2.20;;
37791;SDS011;29527;55.766;37.570;2023-06-05T10:09:02;3.47;;;2.20;;
37791;SDS011;29527;55.766;37.570;2023-06-05T10:11:28;7.35;;;2.50;;
37791;SDS011;29527;55.766;37.570;2023-06-05T10:13:55;5.43;;;2.92;;
37791;SDS011;29527;55.766;37.570;2023-06-05T10:16:28;6.50;;;3.13;;
37791;SDS011;29527;55.766;37.570;2023-06-05T10:18:54;5.43;;;3.22;;
37791;SDS011;29527;55.766;37.570;2023-06-05T10:21:22;6.43;;;3.20;;
37791;SDS011;29527;55.766;37.570;2023-06-05T10:23:49;9.80;;;3.60;;
37791;SDS011;29527;55.766;37.570;2023-06-05T10:37:07;3.95;;;1.80;;
37791;SDS011;29527;55.766;37.570;2023-06-05T10:39:34;4.95;;;2.00;;
37791;SDS011;29527;55.766;37.570;2023-06-05T10:42:02;6.65;;;2.30;;
37791;SDS011;29527;55.766;37.570;2023-06-05T10:44:41;2.42;;;1.75;;
37791;SDS011;29527;55.766;37.570;2023-06-05T10:52:43;4.78;;;1.80;;
37791;SDS011;29527;55.766;37.570;2023-06-05T10:55:12;4.18;;;1.90;;
37791;SDS011;29527;55.766;37.570;2023-06-05T11:00:28;4.75;;;1.83;;
37791;SDS011;29527;55.766;37.570;2023-06-05T11:02:55;5.47;;;1.65;;
37791;SDS011;29527;55.766;37.570;2023-06-05T11:05:21;5.28;;;1.70;;
37791;SDS011;29527;55.766;37.570;2023-06-05T11:07:47;3.42;;;1.70;;
37791;SDS011;29527;55.766;37.570;2023-06-05T11:10:13;4.68;;;2.33;;
37791;SDS011;29527;55.766;37.570;2023-06-05T11:17:44;2.75;;;1.60;;
37791;SDS011;29527;55.766;37.570;2023-06-05T11:25:27;3.60;;;1.50;;
37791;SDS011;29527;55.766;37.570;2023-06-05T11:27:56;4.50;;;1.73;;
37791;SDS011;29527;55.766;37.570;2023-06-05T11:30:29;3.90;;;2.03;;
37791;SDS011;29527;55.766;37.570;2023-06-05T11:33:07;6.53;;;2.08;;
37791;SDS011;29527;55.766;37.570;2023-06-05T11:35:35;7.10;;;2.75;;
37791;SDS011;29527;55.766;37.570;2023-06-05T11:38:07;4.68;;;1.40;;
37791;SDS011;29527;55.766;37.570;2023-06-05T11:40:34;5.97;;;2.13;;
37791;SDS011;29527;55.766;37.570;2023-06-05T11:43:07;4.05;;;1.95;;
37791;SDS011;29527;55.766;37.570;2023-06-05T11:45:35;7.20;;;1.80;;
37791;SDS011;29527;55.766;37.570;2023-06-05T11:48:06;6.45;;;2.30;;
37791;SDS011;29527;55.766;37.570;2023-06-05T11:50:36;5.50;;;2.25;;
37791;SDS011;29527;55.766;37.570;2023-06-05T11:53:07;9.32;;;2.33;;
37791;SDS011;29527;55.766;37.570;2023-06-05T11:55:34;4.78;;;2.30;;
37791;SDS011;29527;55.766;37.570;2023-06-05T12:00:50;7.22;;;2.10;;
37791;SDS011;29527;55.766;37.570;2023-06-05T12:03:20;6.20;;;2.00;;
37791;SDS011;29527;55.766;37.570;2023-06-05T12:05:47;4.20;;;1.70;;
37791;SDS011;29527;55.766;37.570;2023-06-05T12:08:23;4.68;;;2.10;;
37791;SDS011;29527;55.766;37.570;2023-06-05T12:10:53;2.95;;;2.10;;
37791;SDS011;29527;55.766;37.570;2023-06-05T12:13:21;5.00;;;1.90;;
37791;SDS011;29527;55.766;37.570;2023-06-05T12:15:59;4.03;;;2.20;;
37791;SDS011;29527;55.766;37.570;2023-06-05T12:18:36;3.22;;;1.45;;
37791;SDS011;29527;55.766;37.570;2023-06-05T12:21:23;3.95;;;1.55;;
37791;SDS011;29527;55.766;37.570;2023-06-05T12:23:50;3.50;;;1.50;;
37791;SDS011;29527;55.766;37.570;2023-06-05T12:26:16;3.72;;;1.33;;
37791;SDS011;29527;55.766;37.570;2023-06-05T12:28:43;4.43;;;1.80;;
37791;SDS011;29527;55.766;37.570;2023-06-05T12:31:32;6.82;;;2.20;;
37791;SDS011;29527;55.766;37.570;2023-06-05T12:34:00;3.25;;;1.70;;
37791;SDS011;29527;55.766;37.570;2023-06-05T12:36:26;4.40;;;1.73;;
37791;SDS011;29527;55.766;37.570;2023-06-05T12:38:53;5.10;;;1.92;;
37791;SDS011;29527;55.766;37.570;2023-06-05T12:41:20;6.65;;;1.50;;
37791;SDS011;29527;55.766;37.570;2023-06-05T12:43:47;6.75;;;1.98;;
37791;SDS011;29527;55.766;37.570;2023-06-05T12:46:24;4.50;;;1.77;;
37791;SDS011;29527;55.766;37.570;2023-06-05T12:48:49;3.78;;;2.00;;
37791;SDS011;29527;55.766;37.570;2023-06-05T12:51:15;4.72;;;1.50;;
37791;SDS011;29527;55.766;37.570;2023-06-05T12:53:41;7.93;;;2.08;;
37791;SDS011;29527;55.766;37.570;2023-06-05T12:56:07;4.20;;;1.92;;
37791;SDS011;29527;55.766;37.570;2023-06-05T12:58:33;5.00;;;1.70;;
37791;SDS011;29527;55.766;37.570;2023-06-05T13:00:59;5.45;;;1.77;;
37791;SDS011;29527;55.766;37.570;2023-06-05T13:03:25;3.40;;;1.90;;
37791;SDS011;29527;55.766;37.570;2023-06-05T13:05:50;8.15;;;1.70;;
37791;SDS011;29527;55.766;37.570;2023-06-05T13:08:16;5.80;;;1.52;;
37791;SDS011;29527;55.766;37.570;2023-06-05T13:10:41;4.72;;;1.88;;
37791;SDS011;29527;55.766;37.570;2023-06-05T13:13:07;3.42;;;1.20;;
37791;SDS011;29527;55.766;37.570;2023-06-05T13:15:32;7.15;;;2.00;;
37791;SDS011;29527;55.766;37.570;2023-06-05T13:17:58;5.18;;;1.60;;
37791;SDS011;29527;55.766;37.570;2023-06-05T13:20:23;2.58;;;1.50;;
37791;SDS011;29527;55.766;37.570;2023-06-05T13:22:50;1.40;;;1.20;;
37791;SDS011;29527;55.766;37.570;2023-06-05T13:25:16;2.80;;;1.60;;
37791;SDS011;29527;55.766;37.570;2023-06-05T13:27:41;3.30;;;1.48;;
37791;SDS011;29527;55.766;37.570;2023-06-05T13:30:07;4.38;;;1.70;;
37791;SDS011;29527;55.766;37.570;2023-06-05T13:32:36;4.75;;;1.50;;
37791;SDS011;29527;55.766;37.570;2023-06-05T13:35:06;3.80;;;1.55;;
37791;SDS011;29527;55.766;37.570;2023-06-05T13:37:33;3.75;;;1.40;;
37791;SDS011;29527;55.766;37.570;2023-06-05T13:39:58;3.35;;;1.60;;
37791;SDS011;29527;55.766;37.570;2023-06-05T13:42:24;2.95;;;1.80;;
37791;SDS011;29527;55.766;37.570;2023-06-05T13:44:49;5.13;;;1.40;;
37791;SDS011;29527;55.766;37.570;2023-06-05T13:47:15;2.30;;;1.40;;
37791;SDS011;29527;55.766;37.570;2023-06-05T13:49:40;3.13;;;1.25;;
37791;SDS011;29527;55.766;37.570;2023-06-05T13:52:06;6.95;;;1.73;;
37791;SDS011;29527;55.766;37.570;2023-06-05T13:54:32;3.50;;;1.67;;
37791;SDS011;29527;55.766;37.570;2023-06-05T13:56:58;3.22;;;1.40;;
37791;SDS011;29527;55.766;37.570;2023-06-05T13:59:24;2.00;;;1.55;;
37791;SDS011;29527;55.766;37.570;2023-06-05T14:01:50;3.97;;;1.50;;
37791;SDS011;29527;55.766;37.570;2023-06-05T14:04:16;4.47;;;1.75;;
37791;SDS011;29527;55.766;37.570;2023-06-05T14:06:41;3.42;;;1.50;;
37791;SDS011;29527;55.766;37.570;2023-06-05T14:09:07;2.33;;;1.40;;
37791;SDS011;29527;55.766;37.570;2023-06-05T14:11:32;4.90;;;1.52;;
37791;SDS011;29527;55.766;37.570;2023-06-05T14:13:58;3.55;;;1.52;;
37791;SDS011;29527;55.766;37.570;2023-06-05T14:16:24;2.17;;;1.60;;
37791;SDS011;29527;55.766;37.570;2023-06-05T14:18:50;4.90;;;1.52;;
37791;SDS011;29527;55.766;37.570;2023-06-05T14:21:16;7.00;;;2.22;;
37791;SDS011;29527;55.766;37.570;2023-06-05T14:23:41;4.70;;;2.10;;
37791;SDS011;29527;55.766;37.570;2023-06-05T14:26:08;4.05;;;2.00;;
37791;SDS011;29527;55.766;37.570;2023-06-05T14:28:35;3.10;;;1.77;;
37791;SDS011;29527;55.766;37.570;2023-06-05T14:31:01;4.88;;;1.80;;
37791;SDS011;29527;55.766;37.570;2023-06-05T14:33:26;3.65;;;1.95;;
37791;SDS011;29527;55.766;37.570;2023-06-05T14:35:52;5.47;;;2.08;;
37791;SDS011;29527;55.766;37.570;2023-06-05T14:38:18;4.68;;;1.98;;
37791;SDS011;29527;55.766;37.570;2023-06-05T14:40:45;6.35;;;1.67;;
37791;SDS011;29527;55.766;37.570;2023-06-05T14:43:11;7.22;;;2.15;;
37791;SDS011;29527;55.766;37.570;2023-06-05T14:45:36;8.50;;;2.10;;
37791;SDS011;29527;55.766;37.570;2023-06-05T14:48:02;4.22;;;2.10;;
37791;SDS011;29527;55.766;37.570;2023-06-05T14:50:28;6.25;;;1.80;;
37791;SDS011;29527;55.766;37.570;2023-06-05T14:52:54;8.90;;;2.30;;
37791;SDS011;29527;55.766;37.570;2023-06-05T14:55:20;6.63;;;1.67;;
37791;SDS011;29527;55.766;37.570;2023-06-05T14:57:46;4.35;;;2.15;;
37791;SDS011;29527;55.766;37.570;2023-06-05T15:00:11;2.72;;;1.73;;
37791;SDS011;29527;55.766;37.570;2023-06-05T15:02:37;5.18;;;1.95;;
37791;SDS011;29527;55.766;37.570;2023-06-05T15:05:03;4.43;;;2.08;;
37791;SDS011;29527;55.766;37.570;2023-06-05T15:07:37;5.28;;;1.50;;
37791;SDS011;29527;55.766;37.570;2023-06-05T15:10:04;5.65;;;1.70;;
37791;SDS011;29527;55.766;37.570;2023-06-05T15:12:34;3.10;;;1.75;;
37791;SDS011;29527;55.766;37.570;2023-06-05T15:15:01;3.72;;;1.60;;
37791;SDS011;29527;55.766;37.570;2023-06-05T15:17:30;3.80;;;1.70;;
37791;SDS011;29527;55.766;37.570;2023-06-05T15:19:56;3.35;;;1.45;;
37791;SDS011;29527;55.766;37.570;2023-06-05T15:22:22;3.00;;;1.65;;